Terminal Aerodrome Forecast
Issued by NWS Sterling, VA

Home | Current Version | Previous Version | Text Only | Print | Product List | Glossary On
Versions: 1 2 3 4 5 6 7 8 9 10 11 12 13 14 15 16 17 18 19 20 21 22 23 24
000
FTUS41 KLWX 012300
TAFBWI
TAF
KBWI 012328Z 0200/0306 VRB03KT P6SM SCT070 BKN250
     FM021500 28007KT P6SM FEW050 SCT090
     FM022000 22008KT P6SM BKN050
     FM030100 27005KT P6SM BKN050=

USA.gov is the U.S. government's official web portal to all federal, state and local government web resources and services.